Time;durP1;ratioP1;P1;durP2;ratioP2;P2;SDS_P1;SDS_P2;PMS_P1;PMS_P2;Temp;Humidity;BMP_temperature;BMP_pressure;BME280_temperature;BME280_humidity;BME280_pressure;Samples;Min_cycle;Max_cycle;Signal;HPM_P1;HPM_P2
2022/03/21 00:00:22;;;;;;;17.50;13.40;;;7.00;47.80;;;;;;5132247;28;20811;-45
2022/03/21 00:02:49;;;;;;;21.33;13.23;;;7.00;47.90;;;;;;5133066;27;20908;-45
2022/03/21 00:05:16;;;;;;;16.27;12.87;;;6.90;48.50;;;;;;5135901;27;20456;-46
2022/03/21 00:07:43;;;;;;;17.33;13.10;;;6.90;47.90;;;;;;5136326;27;20438;-46
2022/03/21 00:10:11;;;;;;;16.57;12.23;;;6.90;48.00;;;;;;5136186;27;20429;-45
2022/03/21 00:12:39;;;;;;;17.60;14.10;;;6.90;48.20;;;;;;5136545;27;20432;-45
2022/03/21 00:15:10;;;;;;;17.77;12.20;;;6.90;48.30;;;;;;5136754;27;20456;-45
2022/03/21 00:17:40;;;;;;;18.90;14.50;;;6.90;48.30;;;;;;5136294;27;20469;-45
2022/03/21 00:20:09;;;;;;;18.77;14.37;;;6.80;48.30;;;;;;5134425;27;20987;-44
2022/03/21 00:22:36;;;;;;;20.03;12.70;;;6.80;48.40;;;;;;5136408;27;20512;-45
2022/03/21 00:25:02;;;;;;;15.67;13.20;;;6.80;48.50;;;;;;5135822;27;20472;-45
2022/03/21 00:27:30;;;;;;;16.83;12.83;;;6.80;48.50;;;;;;5136374;27;20432;-46
2022/03/21 00:30:00;;;;;;;19.13;14.53;;;6.80;48.60;;;;;;5134687;27;20447;-47
2022/03/21 00:32:26;;;;;;;19.73;14.00;;;6.70;48.50;;;;;;5134669;27;20444;-45
2022/03/21 00:34:53;;;;;;;17.87;13.67;;;6.70;48.50;;;;;;5136079;27;20456;-47
2022/03/21 00:37:23;;;;;;;15.47;12.63;;;6.70;48.60;;;;;;5135573;27;20395;-46
2022/03/21 00:39:49;;;;;;;16.73;13.00;;;6.60;48.60;;;;;;5135204;27;20972;-45
2022/03/21 00:42:16;;;;;;;18.40;12.93;;;6.60;48.60;;;;;;5136064;27;20436;-46
2022/03/21 00:44:44;;;;;;;15.23;11.77;;;6.70;48.70;;;;;;5135998;27;20456;-45
2022/03/21 00:47:11;;;;;;;17.20;13.67;;;6.60;48.80;;;;;;5135910;27;20424;-46
2022/03/21 00:49:37;;;;;;;16.70;13.17;;;6.50;48.80;;;;;;5135385;27;20428;-45
2022/03/21 00:52:05;;;;;;;15.53;12.50;;;6.50;48.90;;;;;;5136015;27;20429;-46
2022/03/21 00:54:31;;;;;;;17.93;13.23;;;6.50;48.90;;;;;;5135219;27;20982;-46
2022/03/21 00:56:58;;;;;;;17.53;13.00;;;6.50;49.10;;;;;;5135437;27;20974;-46
2022/03/21 00:59:24;;;;;;;22.70;13.43;;;6.40;49.10;;;;;;5135013;27;20810;-46
2022/03/21 01:01:52;;;;;;;18.40;12.90;;;6.40;49.20;;;;;;5135203;27;20487;-45
2022/03/21 01:04:19;;;;;;;18.17;14.20;;;6.40;49.20;;;;;;5134982;27;20482;-46
2022/03/21 01:06:45;;;;;;;19.87;14.60;;;6.40;49.30;;;;;;5134869;27;20406;-46
2022/03/21 01:09:14;;;;;;;23.27;14.87;;;6.40;49.90;;;;;;5134513;27;20484;-45
2022/03/21 01:11:43;;;;;;;15.97;12.27;;;6.30;49.40;;;;;;5134997;27;20519;-46
2022/03/21 01:14:09;;;;;;;19.03;13.27;;;6.30;49.50;;;;;;5135400;27;20410;-44
2022/03/21 01:16:36;;;;;;;17.87;13.53;;;6.30;49.50;;;;;;5134720;27;20454;-45
2022/03/21 01:19:05;;;;;;;16.63;12.83;;;6.30;49.60;;;;;;5134433;27;20427;-45
2022/03/21 01:21:32;;;;;;;19.23;12.93;;;6.30;50.20;;;;;;5134402;27;20475;-46
2022/03/21 01:23:58;;;;;;;16.93;12.77;;;6.20;49.70;;;;;;5134718;27;20519;-44
2022/03/21 01:26:25;;;;;;;14.57;12.40;;;6.20;49.80;;;;;;5134710;27;20431;-45
2022/03/21 01:28:51;;;;;;;21.50;12.83;;;6.10;49.80;;;;;;5134231;27;20501;-45
2022/03/21 01:31:18;;;;;;;20.03;14.07;;;6.20;49.80;;;;;;5134423;27;20944;-45
2022/03/21 01:33:45;;;;;;;17.20;13.47;;;6.20;50.00;;;;;;5134182;27;20830;-45
2022/03/21 01:36:13;;;;;;;19.30;13.17;;;6.10;50.00;;;;;;5134219;27;20423;-46
2022/03/21 01:38:39;;;;;;;19.67;14.70;;;6.10;50.00;;;;;;5134256;27;20432;-45
2022/03/21 01:41:06;;;;;;;15.73;12.33;;;6.10;50.10;;;;;;5134038;27;21016;-45
2022/03/21 01:43:33;;;;;;;19.63;13.27;;;6.10;50.10;;;;;;5134166;27;20423;-45
2022/03/21 01:46:00;;;;;;;17.50;12.40;;;6.00;50.10;;;;;;5133941;27;20455;-45
2022/03/21 01:48:27;;;;;;;18.47;13.57;;;6.00;50.20;;;;;;5133823;27;20412;-46
2022/03/21 01:50:53;;;;;;;17.23;13.30;;;6.00;50.20;;;;;;5134045;27;20935;-44
2022/03/21 01:56:06;;;;;;;21.85;12.48;;;5.90;50.40;;;;;;5133878;27;20475;-44
2022/03/21 01:58:34;;;;;;;15.63;12.45;;;5.90;50.40;;;;;;5133499;27;20246;-45
2022/03/21 02:01:01;;;;;;;18.10;13.43;;;5.90;50.40;;;;;;5133538;27;20582;-45
2022/03/21 02:03:27;;;;;;;18.20;13.33;;;5.80;50.40;;;;;;5133798;27;20434;-44
2022/03/21 02:05:55;;;;;;;18.30;13.93;;;5.80;50.50;;;;;;5133797;27;20466;-45
2022/03/21 02:08:24;;;;;;;20.52;13.98;;;5.80;50.70;;;;;;5133567;27;20332;-44
2022/03/21 02:10:51;;;;;;;21.33;11.87;;;5.80;50.60;;;;;;5133664;27;20189;-45
2022/03/21 02:13:19;;;;;;;18.13;12.88;;;5.80;50.60;;;;;;5133666;27;20440;-45
2022/03/21 02:15:46;;;;;;;17.77;12.60;;;5.80;50.60;;;;;;5133446;27;20214;-45
2022/03/21 02:18:13;;;;;;;17.87;12.47;;;5.80;50.70;;;;;;5133602;27;20908;-45
2022/03/21 02:20:41;;;;;;;15.63;12.80;;;5.80;50.60;;;;;;5133169;27;20466;-44
2022/03/21 02:23:12;;;;;;;18.27;13.80;;;5.80;50.80;;;;;;5133485;27;20876;-45
2022/03/21 02:25:43;;;;;;;20.43;13.10;;;5.80;50.80;;;;;;5133319;27;20451;-45
2022/03/21 02:28:11;;;;;;;17.80;13.53;;;5.70;50.70;;;;;;5134280;27;20427;-45
2022/03/21 02:30:40;;;;;;;16.23;13.37;;;5.70;50.80;;;;;;5134742;27;20452;-44
2022/03/21 02:33:07;;;;;;;19.80;13.43;;;5.70;50.80;;;;;;5135052;27;20427;-45
2022/03/21 02:35:34;;;;;;;18.13;14.20;;;5.70;50.90;;;;;;5134416;27;20459;-45
2022/03/21 02:38:02;;;;;;;19.40;13.73;;;5.70;50.90;;;;;;5133987;27;20448;-44
2022/03/21 02:40:28;;;;;;;19.60;13.17;;;5.60;51.00;;;;;;5132811;27;20494;-45
2022/03/21 02:42:56;;;;;;;17.98;12.50;;;5.60;51.00;;;;;;5133262;27;20444;-45
2022/03/21 02:45:23;;;;;;;21.67;13.67;;;5.60;51.00;;;;;;5133000;27;20693;-45
2022/03/21 02:47:50;;;;;;;18.13;13.07;;;5.60;51.00;;;;;;5133205;27;20811;-45
2022/03/21 02:50:18;;;;;;;24.98;14.50;;;5.60;51.10;;;;;;5132751;27;20442;-44
2022/03/21 02:52:48;;;;;;;18.20;13.43;;;5.50;51.00;;;;;;5133080;27;20257;-45
2022/03/21 02:55:15;;;;;;;19.23;14.30;;;5.50;51.00;;;;;;5132924;27;20446;-44
2022/03/21 02:57:41;;;;;;;21.48;15.23;;;5.50;51.10;;;;;;5133052;27;20932;-45
2022/03/21 03:00:12;;;;;;;18.77;13.73;;;5.50;51.20;;;;;;5132597;27;20638;-45
2022/03/21 03:02:39;;;;;;;19.10;14.57;;;5.50;51.20;;;;;;5132850;27;20193;-45
2022/03/21 03:05:06;;;;;;;21.07;15.10;;;5.40;51.20;;;;;;5133278;27;20789;-45
2022/03/21 03:07:32;;;;;;;19.98;14.95;;;5.40;51.20;;;;;;5132751;27;20427;-45
2022/03/21 03:09:59;;;;;;;21.48;15.80;;;5.40;51.40;;;;;;5132338;27;20223;-45
2022/03/21 03:12:25;;;;;;;22.23;14.98;;;5.40;51.40;;;;;;5132660;27;20201;-46
2022/03/21 03:14:52;;;;;;;16.40;13.93;;;5.30;51.50;;;;;;5132589;27;20627;-45
2022/03/21 03:17:20;;;;;;;20.20;15.13;;;5.30;51.60;;;;;;5132762;27;20438;-46
2022/03/21 03:19:46;;;;;;;19.53;14.90;;;5.30;51.70;;;;;;5132439;27;20732;-45
2022/03/21 03:22:16;;;;;;;20.65;15.43;;;5.30;51.90;;;;;;5133015;27;20475;-44
2022/03/21 03:24:43;;;;;;;21.10;14.47;;;5.20;51.80;;;;;;5133650;27;20565;-46
2022/03/21 03:27:09;;;;;;;24.00;15.82;;;5.20;51.80;;;;;;5133165;27;20951;-44
2022/03/21 03:29:36;;;;;;;19.80;15.33;;;5.20;51.90;;;;;;5132579;27;20620;-45
2022/03/21 03:32:04;;;;;;;20.07;14.53;;;5.20;52.00;;;;;;5133194;27;20422;-46
2022/03/21 03:34:33;;;;;;;24.20;15.43;;;5.20;52.10;;;;;;5132905;27;20450;-45
2022/03/21 03:37:00;;;;;;;24.10;16.30;;;5.10;52.00;;;;;;5132958;27;20821;-44
2022/03/21 03:39:26;;;;;;;22.15;15.90;;;5.10;52.10;;;;;;5134962;27;20202;-45
2022/03/21 03:41:53;;;;;;;24.38;17.60;;;5.10;52.20;;;;;;5136746;27;20213;-46
2022/03/21 03:44:20;;;;;;;21.23;16.08;;;5.10;52.30;;;;;;5136870;27;20257;-45
2022/03/21 03:46:46;;;;;;;21.42;16.42;;;5.10;52.30;;;;;;5137210;27;20189;-45
2022/03/21 03:49:13;;;;;;;24.30;17.58;;;5.10;52.40;;;;;;5136706;27;20550;-46
2022/03/21 03:51:41;;;;;;;25.65;17.52;;;5.10;52.30;;;;;;5135551;27;20197;-46
2022/03/21 03:54:08;;;;;;;21.35;16.10;;;5.10;52.30;;;;;;5136604;27;20189;-44
2022/03/21 03:56:34;;;;;;;23.10;16.92;;;5.10;52.50;;;;;;5136601;27;20217;-45
2022/03/21 03:59:01;;;;;;;21.52;17.00;;;5.00;52.40;;;;;;5136513;27;20292;-45
2022/03/21 04:01:28;;;;;;;24.70;15.95;;;5.00;52.50;;;;;;5136545;27;20209;-44
2022/03/21 04:03:54;;;;;;;27.65;17.80;;;5.00;52.40;;;;;;5136592;27;20200;-44
2022/03/21 04:06:23;;;;;;;29.30;17.17;;;5.00;52.50;;;;;;5136771;27;20221;-45
2022/03/21 04:08:52;;;;;;;21.58;17.42;;;5.00;52.50;;;;;;5136496;27;20197;-44
2022/03/21 04:11:19;;;;;;;27.08;17.55;;;5.00;52.50;;;;;;5136911;27;20185;-44
2022/03/21 04:13:46;;;;;;;26.90;17.20;;;5.00;52.60;;;;;;5136522;27;20193;-45
2022/03/21 04:16:14;;;;;;;23.35;17.75;;;5.10;52.70;;;;;;5136555;27;20214;-44
2022/03/21 04:18:41;;;;;;;23.58;17.00;;;5.00;52.60;;;;;;5136254;27;20550;-45
2022/03/21 04:21:08;;;;;;;25.17;17.67;;;5.00;52.70;;;;;;5136230;27;20221;-45
2022/03/21 04:23:35;;;;;;;28.23;18.98;;;4.90;52.60;;;;;;5136387;27;20204;-46
2022/03/21 04:26:03;;;;;;;31.83;18.77;;;4.90;52.60;;;;;;5136411;27;20220;-44
2022/03/21 04:28:30;;;;;;;22.10;16.50;;;4.90;52.60;;;;;;5136562;27;20489;-44
2022/03/21 04:30:57;;;;;;;24.27;16.10;;;4.90;52.70;;;;;;5136255;27;20435;-45
2022/03/21 04:33:23;;;;;;;25.20;17.85;;;4.90;52.70;;;;;;5136503;27;20546;-46
2022/03/21 04:35:50;;;;;;;28.88;18.45;;;4.80;52.60;;;;;;5136547;27;20213;-45
2022/03/21 04:38:17;;;;;;;24.13;17.42;;;4.90;52.70;;;;;;5135774;27;20204;-45
2022/03/21 04:40:46;;;;;;;26.50;18.02;;;4.90;52.70;;;;;;5135411;27;20198;-45
2022/03/21 04:43:15;;;;;;;24.13;18.35;;;4.80;52.60;;;;;;5135914;27;20190;-45
2022/03/21 04:45:42;;;;;;;29.10;18.08;;;4.80;52.60;;;;;;5135375;27;20244;-45
2022/03/21 04:48:09;;;;;;;24.23;17.55;;;4.80;52.70;;;;;;5135528;27;20200;-45
2022/03/21 04:50:35;;;;;;;25.45;16.83;;;4.80;52.70;;;;;;5134549;27;20201;-44
2022/03/21 04:53:02;;;;;;;24.48;17.60;;;4.80;52.70;;;;;;5135194;27;20199;-45
2022/03/21 04:55:29;;;;;;;27.75;19.00;;;4.70;52.70;;;;;;5135343;27;20217;-45
2022/03/21 04:57:56;;;;;;;24.30;17.73;;;4.70;52.70;;;;;;5135184;27;20231;-45
2022/03/21 05:00:24;;;;;;;21.67;16.33;;;4.70;52.70;;;;;;5134422;27;20658;-45
2022/03/21 05:02:50;;;;;;;23.13;16.80;;;4.70;52.80;;;;;;5135523;27;20217;-45
2022/03/21 05:05:17;;;;;;;25.60;17.83;;;4.70;52.80;;;;;;5135099;27;20224;-46
2022/03/21 05:07:45;;;;;;;26.50;17.75;;;4.70;52.80;;;;;;5135136;27;20197;-45
2022/03/21 05:10:14;;;;;;;25.83;17.88;;;4.70;52.70;;;;;;5134965;27;20250;-44
2022/03/21 05:12:41;;;;;;;24.42;16.48;;;4.60;52.80;;;;;;5134584;27;20189;-42
2022/03/21 05:15:08;;;;;;;25.85;17.15;;;4.60;52.80;;;;;;5134240;27;20270;-42
2022/03/21 05:17:37;;;;;;;23.02;17.30;;;4.60;52.90;;;;;;5134412;27;20216;-43
2022/03/21 05:20:10;;;;;;;23.35;17.33;;;4.60;52.90;;;;;;5134152;27;20658;-46
2022/03/21 05:22:36;;;;;;;25.20;16.90;;;4.60;52.90;;;;;;5134254;27;20217;-42
2022/03/21 05:36:02;;;;;;;29.67;17.75;;;4.70;53.10;;;;;;5134011;27;20223;-42
2022/03/21 05:38:30;;;;;;;26.00;17.70;;;4.60;53.00;;;;;;5133555;27;20673;-46
2022/03/21 05:41:00;;;;;;;29.55;17.33;;;4.70;53.10;;;;;;5133835;27;20197;-43
2022/03/21 05:43:26;;;;;;;23.10;16.10;;;4.70;53.20;;;;;;5133998;27;20238;-41
2022/03/21 05:45:53;;;;;;;26.38;16.88;;;4.70;53.00;;;;;;5133656;27;20213;-42
2022/03/21 05:51:06;;;;;;;24.95;16.33;;;4.70;53.00;;;;;;5133667;27;20432;-42
2022/03/21 05:53:33;;;;;;;26.50;16.30;;;4.70;52.90;;;;;;5133528;27;20661;-44
2022/03/21 05:56:01;;;;;;;21.25;15.48;;;4.70;52.80;;;;;;5133328;27;20681;-41
2022/03/21 05:58:27;;;;;;;21.23;15.55;;;4.80;52.90;;;;;;5133183;27;20193;-42
2022/03/21 06:00:54;;;;;;;21.45;16.00;;;4.80;52.70;;;;;;5132655;27;20205;-42
2022/03/21 06:03:24;;;;;;;26.85;18.05;;;4.90;52.60;;;;;;5133203;27;20221;-43
2022/03/21 06:05:51;;;;;;;26.65;16.77;;;4.90;52.60;;;;;;5133220;27;20224;-42
2022/03/21 06:08:20;;;;;;;20.80;16.40;;;5.00;52.60;;;;;;5133177;27;20249;-43
2022/03/21 06:10:47;;;;;;;21.88;16.10;;;5.00;52.50;;;;;;5132886;27;20188;-41
2022/03/21 06:13:14;;;;;;;24.52;16.10;;;5.10;53.00;;;;;;5133105;27;20193;-45
2022/03/21 06:15:41;;;;;;;29.20;18.88;;;5.20;52.40;;;;;;5132704;27;20227;-42
2022/03/21 06:18:10;;;;;;;23.73;17.70;;;5.30;52.30;;;;;;5133299;27;20193;-45
2022/03/21 06:20:39;;;;;;;24.33;18.10;;;5.30;52.20;;;;;;5132874;27;20201;-42
2022/03/21 06:23:06;;;;;;;32.63;19.13;;;5.40;52.10;;;;;;5133075;27;20702;-46
2022/03/21 06:25:33;;;;;;;25.55;17.92;;;5.40;52.10;;;;;;5133109;27;20213;-42
2022/03/21 06:28:01;;;;;;;29.92;17.88;;;5.50;52.00;;;;;;5132675;27;20201;-43
2022/03/21 06:30:28;;;;;;;29.83;17.75;;;5.50;51.90;;;;;;5132481;27;20620;-46
2022/03/21 06:32:54;;;;;;;26.93;17.73;;;5.50;52.30;;;;;;5132830;27;20281;-41
2022/03/21 06:35:22;;;;;;;22.67;16.00;;;5.60;51.80;;;;;;5132750;27;20938;-42
2022/03/21 06:37:50;;;;;;;28.23;18.73;;;5.60;51.70;;;;;;5131139;27;20447;-45
2022/03/21 06:40:17;;;;;;;23.93;18.70;;;5.70;51.70;;;;;;5132194;27;20513;-44
2022/03/21 06:42:43;;;;;;;28.40;17.57;;;5.80;51.60;;;;;;5132933;27;20471;-41
2022/03/21 06:45:10;;;;;;;29.50;17.85;;;5.80;51.40;;;;;;5132513;27;20935;-48
2022/03/21 06:47:37;;;;;;;24.90;18.40;;;5.80;51.40;;;;;;5132532;27;20310;-43
2022/03/21 06:50:05;;;;;;;26.43;18.90;;;5.90;51.40;;;;;;5132410;27;20430;-42
2022/03/21 06:52:32;;;;;;;30.77;19.40;;;6.00;51.30;;;;;;5132512;27;20464;-42
2022/03/21 06:55:00;;;;;;;25.20;17.13;;;6.00;51.20;;;;;;5130769;27;20964;-42
2022/03/21 06:57:27;;;;;;;27.37;19.00;;;6.10;51.20;;;;;;5132534;27;20450;-42
2022/03/21 06:59:54;;;;;;;31.87;18.67;;;6.20;51.20;;;;;;5132364;27;20427;-43
2022/03/21 07:02:23;;;;;;;27.67;17.33;;;6.20;51.10;;;;;;5133234;27;20464;-44
2022/03/21 07:04:49;;;;;;;28.83;18.90;;;6.30;51.00;;;;;;5133186;28;20455;-43
2022/03/21 07:07:16;;;;;;;23.07;16.43;;;6.30;51.00;;;;;;5133833;27;20519;-44
2022/03/21 07:09:42;;;;;;;36.70;18.00;;;6.30;50.80;;;;;;5133623;27;20872;-43
2022/03/21 07:12:11;;;;;;;29.07;18.37;;;6.40;50.60;;;;;;5134709;27;20437;-44
2022/03/21 07:14:37;;;;;;;25.40;16.70;;;6.30;50.40;;;;;;5138385;27;20454;-41
2022/03/21 07:17:04;;;;;;;21.87;17.67;;;6.50;50.40;;;;;;5138680;27;20437;-42
2022/03/21 07:19:31;;;;;;;25.37;17.00;;;6.50;50.30;;;;;;5137309;27;20533;-44
2022/03/21 07:21:58;;;;;;;26.60;17.20;;;6.60;50.20;;;;;;5137053;27;20486;-43
2022/03/21 07:24:24;;;;;;;23.10;14.60;;;6.60;49.90;;;;;;5136697;27;20448;-44
2022/03/21 07:26:51;;;;;;;24.77;16.00;;;6.60;49.50;;;;;;5137072;27;20447;-42
2022/03/21 07:29:19;;;;;;;24.87;16.33;;;6.60;49.30;;;;;;5136290;27;20458;-44
2022/03/21 07:31:46;;;;;;;22.17;15.27;;;6.70;49.10;;;;;;5136335;27;20451;-43
2022/03/21 07:34:13;;;;;;;21.67;15.00;;;6.70;48.90;;;;;;5136531;27;20997;-43
2022/03/21 07:36:40;;;;;;;17.60;13.60;;;6.80;48.70;;;;;;5135046;27;20457;-43
2022/03/21 07:39:06;;;;;;;18.10;13.60;;;6.80;48.10;;;;;;5136426;27;20488;-43
2022/03/21 07:41:35;;;;;;;25.73;14.23;;;6.90;48.30;;;;;;5136445;27;20439;-43
2022/03/21 07:44:02;;;;;;;20.57;14.27;;;6.90;47.90;;;;;;5137231;27;20485;-44
2022/03/21 07:49:11;;;;;;;17.93;13.70;;;7.00;47.70;;;;;;5112759;27;20452;-44
2022/03/21 07:51:38;;;;;;;18.17;12.30;;;7.00;47.80;;;;;;5136105;27;20428;-42
2022/03/21 07:54:05;;;;;;;17.60;13.27;;;7.10;47.40;;;;;;5135989;27;20954;-43
2022/03/21 07:56:31;;;;;;;18.40;13.60;;;7.10;47.30;;;;;;5136218;27;20448;-42
2022/03/21 07:58:59;;;;;;;19.47;13.80;;;7.20;47.50;;;;;;5135656;27;20440;-45
2022/03/21 08:01:29;;;;;;;20.60;13.10;;;7.20;47.50;;;;;;5136208;27;20430;-43
2022/03/21 08:03:59;;;;;;;17.10;12.97;;;7.20;47.30;;;;;;5136568;27;20468;-41
2022/03/21 08:06:26;;;;;;;17.63;12.40;;;7.30;47.10;;;;;;5136364;27;20421;-43
2022/03/21 08:08:53;;;;;;;25.77;12.60;;;7.40;46.90;;;;;;5136266;27;20427;-43
2022/03/21 08:11:20;;;;;;;20.43;13.00;;;7.40;46.70;;;;;;5136313;27;20512;-43
2022/03/21 08:13:49;;;;;;;23.07;13.00;;;7.50;46.70;;;;;;5136355;27;20435;-43
2022/03/21 08:16:19;;;;;;;18.40;10.80;;;7.50;46.60;;;;;;5135747;27;20830;-43
2022/03/21 08:18:47;;;;;;;19.23;12.33;;;7.50;46.40;;;;;;5136115;27;20509;-44
2022/03/21 08:21:15;;;;;;;16.10;10.90;;;7.60;45.80;;;;;;5136030;27;20792;-43
2022/03/21 08:23:43;;;;;;;15.00;11.47;;;7.70;44.90;;;;;;5135141;27;20477;-40
2022/03/21 08:26:09;;;;;;;24.60;12.93;;;7.70;44.80;;;;;;5134508;27;20519;-43
2022/03/21 08:28:36;;;;;;;21.60;11.20;;;7.70;44.80;;;;;;5135150;27;20779;-42
2022/03/21 08:31:03;;;;;;;17.10;10.60;;;7.80;44.60;;;;;;5135717;27;20484;-46
2022/03/21 08:33:30;;;;;;;18.57;11.27;;;7.90;44.70;;;;;;5135089;27;20429;-42
2022/03/21 08:35:56;;;;;;;14.97;10.80;;;7.90;44.40;;;;;;5134844;27;20488;-44
2022/03/21 08:38:24;;;;;;;12.23;9.33;;;7.90;44.20;;;;;;5135004;27;20807;-46
2022/03/21 08:40:51;;;;;;;19.80;10.90;;;8.00;44.00;;;;;;5135349;27;20444;-42
2022/03/21 08:43:18;;;;;;;16.17;9.67;;;8.00;44.00;;;;;;5135108;27;20472;-43
2022/03/21 08:45:47;;;;;;;13.17;10.20;;;8.10;43.70;;;;;;5135994;27;20815;-42
2022/03/21 08:48:14;;;;;;;17.23;10.73;;;8.20;43.70;;;;;;5134711;27;20844;-43
2022/03/21 08:50:40;;;;;;;15.67;11.47;;;8.20;43.50;;;;;;5134359;27;20429;-42
2022/03/21 08:53:08;;;;;;;12.13;10.00;;;8.20;43.20;;;;;;5135194;27;20831;-43
2022/03/21 08:55:36;;;;;;;15.00;9.90;;;8.20;43.20;;;;;;5134465;27;20476;-44
2022/03/21 08:58:02;;;;;;;14.93;10.17;;;8.30;43.10;;;;;;5134961;27;20926;-44
2022/03/21 09:00:29;;;;;;;17.07;9.97;;;8.40;43.20;;;;;;5134822;27;20440;-43
2022/03/21 09:02:55;;;;;;;12.53;9.83;;;8.40;43.20;;;;;;5134989;27;21058;-45
2022/03/21 09:05:22;;;;;;;15.37;10.17;;;8.50;43.00;;;;;;5134608;27;20458;-43
2022/03/21 09:07:49;;;;;;;14.23;9.07;;;8.50;42.80;;;;;;5134950;27;20435;-42
2022/03/21 09:10:16;;;;;;;19.53;10.73;;;8.50;42.90;;;;;;5134692;27;20442;-43
2022/03/21 09:12:44;;;;;;;13.00;8.97;;;8.60;42.60;;;;;;5134663;27;20445;-43
2022/03/21 09:15:11;;;;;;;35.33;11.57;;;8.60;42.30;;;;;;5133673;27;20467;-42
2022/03/21 09:17:38;;;;;;;13.03;10.37;;;8.60;42.10;;;;;;5134407;27;20446;-41
2022/03/21 09:20:07;;;;;;;12.00;9.17;;;8.70;42.50;;;;;;5134071;27;20455;-43
2022/03/21 09:22:33;;;;;;;15.47;9.30;;;8.80;42.10;;;;;;5134103;27;20566;-43
2022/03/21 09:25:00;;;;;;;20.40;9.47;;;8.60;41.70;;;;;;5134001;27;20822;-42
2022/03/21 09:27:27;;;;;;;15.40;8.70;;;8.90;41.10;;;;;;5134135;27;20438;-42
2022/03/21 09:29:56;;;;;;;12.47;9.67;;;8.90;40.90;;;;;;5133609;27;20992;-43
2022/03/21 09:32:25;;;;;;;11.03;8.03;;;9.00;40.70;;;;;;5133901;27;20427;-45
2022/03/21 09:34:51;;;;;;;15.33;8.87;;;9.00;41.00;;;;;;5134146;27;20443;-41
2022/03/21 09:37:18;;;;;;;12.93;9.53;;;9.00;40.50;;;;;;5132898;27;20427;-42
2022/03/21 09:39:45;;;;;;;9.73;7.73;;;8.90;40.60;;;;;;5133403;27;20800;-42
2022/03/21 09:42:12;;;;;;;16.23;9.53;;;9.10;39.90;;;;;;5133732;27;20435;-42
2022/03/21 09:44:39;;;;;;;19.97;10.03;;;9.00;40.00;;;;;;5133477;27;20455;-44
2022/03/21 09:49:58;;;;;;;13.17;9.10;;;9.30;40.00;;;;;;5121527;27;20961;-42
2022/03/21 09:52:25;;;;;;;11.60;9.37;;;9.30;40.20;;;;;;5131214;27;20451;-42
2022/03/21 09:54:51;;;;;;;24.23;11.10;;;9.40;40.30;;;;;;5113170;28;20459;-42
2022/03/21 09:57:19;;;;;;;17.80;10.50;;;9.40;40.20;;;;;;5118905;27;20825;-42
2022/03/21 09:59:45;;;;;;;14.90;9.37;;;9.50;40.30;;;;;;5133189;27;20423;-44
2022/03/21 10:02:18;;;;;;;14.27;9.07;;;9.50;39.60;;;;;;5133773;27;20434;-42
2022/03/21 10:04:46;;;;;;;13.07;9.40;;;9.50;39.70;;;;;;5133284;27;20454;-43
2022/03/21 10:07:15;;;;;;;15.33;9.00;;;9.60;39.90;;;;;;5115128;27;20987;-42
2022/03/21 10:09:42;;;;;;;14.60;9.40;;;9.60;39.50;;;;;;5112685;28;20854;-43
2022/03/21 10:12:11;;;;;;;11.33;9.53;;;9.70;39.40;;;;;;5112793;28;20454;-43
2022/03/21 10:14:38;;;;;;;12.20;9.43;;;9.70;39.60;;;;;;5112520;28;20513;-44
2022/03/21 10:17:07;;;;;;;10.43;9.10;;;9.80;39.80;;;;;;5112375;28;20439;-43
2022/03/21 10:19:46;;;;;;;14.40;10.57;;;9.70;39.80;;;;;;5112467;28;20554;-43
2022/03/21 10:22:15;;;;;;;12.67;9.80;;;9.80;39.80;;;;;;5112923;27;20428;-43
2022/03/21 10:24:43;;;;;;;11.40;8.90;;;9.80;40.00;;;;;;5133110;27;20487;-44
2022/03/21 10:27:29;;;;;;;13.63;10.33;;;9.60;39.90;;;;;;5133151;27;20442;-42
2022/03/21 10:30:00;;;;;;;11.20;8.30;;;9.90;39.90;;;;;;5132594;27;20525;-45
2022/03/21 10:32:34;;;;;;;15.53;8.97;;;9.90;39.80;;;;;;5133002;27;20431;-43
2022/03/21 10:35:04;;;;;;;9.20;8.17;;;10.00;38.90;;;;;;5132936;27;20457;-43
2022/03/21 10:37:49;;;;;;;10.50;8.93;;;10.00;38.80;;;;;;5133113;27;20535;-42
2022/03/21 10:40:22;;;;;;;10.60;8.63;;;10.10;38.30;;;;;;5132956;27;20487;-44
2022/03/21 10:42:55;;;;;;;12.40;8.97;;;10.10;38.00;;;;;;5132827;27;20465;-43
2022/03/21 10:45:23;;;;;;;9.87;8.73;;;10.10;38.00;;;;;;5132921;27;20438;-43
2022/03/21 10:47:50;;;;;;;11.83;8.10;;;10.20;37.80;;;;;;5132338;27;20870;-42
2022/03/21 10:50:27;;;;;;;8.70;7.70;;;10.00;37.60;;;;;;5132490;27;20434;-44
2022/03/21 10:53:07;;;;;;;10.60;8.60;;;10.30;37.40;;;;;;5132827;27;20435;-41
2022/03/21 10:55:34;;;;;;;11.67;8.20;;;10.30;37.00;;;;;;5132551;27;20450;-42
2022/03/21 10:58:03;;;;;;;10.47;8.70;;;10.30;36.80;;;;;;5117865;27;20458;-43
2022/03/21 11:00:30;;;;;;;10.60;7.43;;;10.40;36.80;;;;;;5111650;28;20427;-42
2022/03/21 11:03:00;;;;;;;12.77;8.57;;;10.40;36.60;;;;;;5111899;28;20439;-45
2022/03/21 11:05:30;;;;;;;11.10;8.43;;;10.40;37.00;;;;;;5112495;28;20795;-44
2022/03/21 11:07:57;;;;;;;12.20;8.53;;;10.40;37.10;;;;;;5111894;28;20432;-42
2022/03/21 11:10:26;;;;;;;12.23;8.37;;;10.50;36.90;;;;;;5128416;22;20907;-47
2022/03/21 11:12:55;;;;;;;14.70;9.50;;;10.50;37.00;;;;;;5071646;28;20450;-48
2022/03/21 11:15:22;;;;;;;16.80;9.30;;;10.50;37.10;;;;;;5071326;28;20429;-48
2022/03/21 11:17:49;;;;;;;10.87;9.03;;;10.50;37.30;;;;;;5070956;28;20448;-47
2022/03/21 11:20:16;;;;;;;9.97;8.40;;;10.60;37.40;;;;;;5070499;28;20426;-47
2022/03/21 11:22:44;;;;;;;16.10;9.10;;;10.60;37.00;;;;;;5070584;28;20933;-47
2022/03/21 11:25:12;;;;;;;12.47;8.67;;;10.60;36.60;;;;;;5071069;28;20437;-48
2022/03/21 11:27:56;;;;;;;16.13;9.03;;;10.70;36.60;;;;;;5070718;28;20453;-48
2022/03/21 11:30:29;;;;;;;10.87;8.63;;;10.70;36.10;;;;;;5070355;28;20795;-47
2022/03/21 11:33:06;;;;;;;11.00;8.87;;;10.80;36.30;;;;;;5070322;28;20436;-47
2022/03/21 11:35:34;;;;;;;17.17;12.60;;;10.80;36.20;;;;;;5070470;28;20441;-48
2022/03/21 11:38:23;;;;;;;10.93;8.77;;;10.80;36.50;;;;;;5070084;28;20448;-47
2022/03/21 11:40:50;;;;;;;9.93;8.13;;;10.90;36.20;;;;;;5070241;28;20457;-47
2022/03/21 11:43:29;;;;;;;11.73;8.20;;;10.90;36.10;;;;;;5069874;28;20465;-45
2022/03/21 11:45:58;;;;;;;16.80;9.07;;;10.80;35.50;;;;;;5070690;28;20430;-47
2022/03/21 11:48:37;;;;;;;15.00;9.67;;;11.00;35.70;;;;;;5069645;28;20439;-48
2022/03/21 11:51:38;;;;;;;10.83;8.77;;;11.00;35.80;;;;;;5070382;28;20498;-47
2022/03/21 11:54:24;;;;;;;19.10;11.10;;;11.10;35.70;;;;;;5064908;28;20528;-49
2022/03/21 11:56:59;;;;;;;15.80;9.87;;;11.10;35.80;;;;;;5062261;28;20445;-47
2022/03/21 11:59:50;;;;;;;14.53;8.50;;;11.20;35.70;;;;;;5069298;28;20441;-47
2022/03/21 12:02:51;;;;;;;11.60;8.60;;;11.20;35.30;;;;;;5073001;28;20553;-49
2022/03/21 12:05:41;;;;;;;13.53;9.80;;;11.20;35.30;;;;;;5061247;28;20537;-47
2022/03/21 12:08:33;;;;;;;10.30;8.70;;;11.20;35.00;;;;;;5072851;28;20456;-46
2022/03/21 12:11:01;;;;;;;22.43;9.00;;;11.30;34.60;;;;;;5073022;28;20469;-48
2022/03/21 12:13:41;;;;;;;10.90;7.67;;;11.30;34.80;;;;;;5070561;28;20417;-47
2022/03/21 12:16:18;;;;;;;11.93;8.60;;;11.40;34.20;;;;;;5072686;28;20524;-47
2022/03/21 12:19:02;;;;;;;7.97;7.17;;;11.50;34.70;;;;;;5072993;28;20466;-47
2022/03/21 12:21:29;;;;;;;8.53;6.93;;;11.50;34.50;;;;;;5055799;28;20470;-48
2022/03/21 12:24:12;;;;;;;8.53;7.17;;;11.50;33.80;;;;;;5074567;28;20484;-47
2022/03/21 12:26:48;;;;;;;10.43;7.93;;;11.60;34.00;;;;;;5073847;28;20452;-47
2022/03/21 12:29:34;;;;;;;13.07;9.13;;;11.60;34.10;;;;;;5072686;28;20551;-46
2022/03/21 12:32:23;;;;;;;10.40;7.30;;;11.70;33.40;;;;;;5066483;28;20451;-47
2022/03/21 12:34:52;;;;;;;29.60;9.23;;;11.70;33.20;;;;;;5072862;28;20437;-48
2022/03/21 12:37:41;;;;;;;13.98;9.10;;;11.70;33.70;;;;;;5073453;28;20511;-47
2022/03/21 12:40:10;;;;;;;11.43;7.97;;;11.90;33.80;;;;;;5072772;28;20215;-48
2022/03/21 12:42:43;;;;;;;10.87;8.97;;;11.80;33.80;;;;;;5072815;28;20547;-47
2022/03/21 12:45:16;;;;;;;10.60;8.80;;;11.80;33.60;;;;;;5072739;28;20473;-46
2022/03/21 12:47:43;;;;;;;12.50;9.43;;;11.80;33.80;;;;;;5072849;28;20766;-49
2022/03/21 12:50:10;;;;;;;11.30;8.33;;;11.70;33.80;;;;;;5072242;28;20454;-48
2022/03/21 12:52:37;;;;;;;12.50;8.63;;;11.90;34.00;;;;;;5072242;28;20471;-47
2022/03/21 12:55:05;;;;;;;16.23;8.40;;;11.90;34.10;;;;;;5053769;28;20458;-47
2022/03/21 12:57:33;;;;;;;13.70;10.00;;;11.90;34.20;;;;;;5072159;28;20433;-46
2022/03/21 13:00:17;;;;;;;12.68;9.40;;;11.90;34.10;;;;;;5071598;28;20444;-46
2022/03/21 13:02:43;;;;;;;11.73;9.40;;;12.10;34.10;;;;;;5072086;28;20279;-46
2022/03/21 13:10:43;;;;;;;13.73;9.07;;;12.00;34.10;;;;;;5071943;28;20470;-47
2022/03/21 13:13:09;;;;;;;10.33;9.17;;;12.00;34.00;;;;;;5072654;28;20440;-46